createdAt,value
2023-01-28T00:02:18.937Z,0.00
2023-01-28T00:04:50.691Z,0.00
2023-01-28T00:07:22.723Z,0.00
2023-01-28T00:09:54.670Z,0.00
2023-01-28T00:12:27.137Z,0.00
2023-01-28T00:14:58.913Z,0.10
2023-01-28T00:17:30.611Z,0.00
2023-01-28T00:20:02.859Z,0.00
2023-01-28T00:22:34.788Z,0.00
2023-01-28T00:25:06.735Z,0.00
2023-01-28T00:27:38.462Z,0.00
2023-01-28T00:30:10.926Z,0.00
2023-01-28T00:32:44.393Z,0.10
2023-01-28T00:35:16.710Z,0.10
2023-01-28T00:37:48.599Z,0.00
2023-01-28T00:40:20.428Z,0.10
2023-01-28T00:42:52.219Z,0.10
2023-01-28T00:45:24.007Z,0.00
2023-01-28T00:47:55.865Z,0.00
2023-01-28T00:50:27.542Z,0.00
2023-01-28T00:52:59.426Z,0.10
2023-01-28T00:55:31.144Z,0.10
2023-01-28T00:58:02.853Z,0.10
2023-01-28T01:00:34.607Z,0.10
2023-01-28T01:03:06.411Z,0.10
2023-01-28T01:05:38.435Z,0.00
2023-01-28T01:08:10.200Z,0.10
2023-01-28T01:10:41.858Z,0.10
2023-01-28T01:13:13.526Z,0.10
2023-01-28T01:15:45.303Z,0.10
2023-01-28T01:18:17.494Z,0.10
2023-01-28T01:20:49.207Z,0.00
2023-01-28T01:23:20.948Z,0.10
2023-01-28T01:25:52.694Z,0.00
2023-01-28T01:28:24.665Z,0.00
2023-01-28T01:31:08.181Z,0.10
2023-01-28T01:33:40.374Z,0.10
2023-01-28T01:36:14.160Z,0.00
2023-01-28T01:38:46.370Z,0.10
2023-01-28T01:41:32.592Z,0.00
2023-01-28T01:44:06.144Z,0.10
2023-01-28T01:46:50.829Z,0.10
2023-01-28T01:49:25.820Z,0.10
2023-01-28T01:52:06.123Z,0.10
2023-01-28T01:54:39.714Z,0.10
2023-01-28T01:57:16.760Z,0.10
2023-01-28T01:59:48.851Z,0.10
2023-01-28T02:02:20.764Z,0.00
2023-01-28T02:04:52.529Z,0.10
2023-01-28T02:07:24.284Z,0.00
2023-01-28T02:09:56.104Z,0.00
2023-01-28T02:12:35.204Z,0.10
2023-01-28T02:15:14.560Z,0.10
2023-01-28T02:17:47.504Z,0.10
2023-01-28T02:20:25.688Z,0.10
2023-01-28T02:23:09.201Z,0.20
2023-01-28T02:25:56.040Z,0.20
2023-01-28T02:28:41.083Z,0.10
2023-01-28T02:31:19.727Z,0.10
2023-01-28T02:34:20.161Z,0.10
2023-01-28T02:36:58.046Z,0.10
2023-01-28T02:39:35.276Z,0.20
2023-01-28T02:42:13.604Z,0.20
2023-01-28T02:44:45.347Z,0.20
2023-01-28T02:47:35.731Z,0.20
2023-01-28T02:50:13.903Z,0.20
2023-01-28T02:53:19.042Z,0.20
2023-01-28T02:56:07.797Z,0.20
2023-01-28T02:59:46.262Z,0.20
2023-01-28T03:02:39.552Z,0.20
2023-01-28T03:05:29.564Z,0.30
2023-01-28T03:08:23.721Z,0.30
2023-01-28T03:11:15.553Z,0.30
2023-01-28T03:14:06.781Z,0.30
2023-01-28T03:16:57.289Z,0.20
2023-01-28T03:19:47.685Z,0.20
2023-01-28T03:22:38.694Z,0.30
2023-01-28T03:25:32.364Z,0.30
2023-01-28T03:28:27.559Z,0.30
2023-01-28T03:31:33.198Z,0.30
2023-01-28T03:34:24.669Z,0.30
2023-01-28T03:36:57.125Z,0.30
2023-01-28T03:39:30.581Z,0.20
2023-01-28T03:42:11.414Z,0.20
2023-01-28T03:44:52.978Z,0.20
2023-01-28T03:47:26.115Z,0.20
2023-01-28T03:50:01.776Z,0.20
2023-01-28T03:52:34.008Z,0.20
2023-01-28T03:55:13.963Z,0.20
2023-01-28T03:57:46.062Z,0.20
2023-01-28T04:00:20.093Z,0.10
2023-01-28T04:02:51.956Z,0.10
2023-01-28T04:05:23.942Z,0.20
2023-01-28T04:07:56.168Z,0.10
2023-01-28T04:10:27.838Z,0.10
2023-01-28T04:12:59.511Z,0.10
2023-01-28T04:15:31.555Z,0.20
2023-01-28T04:18:03.274Z,0.20
2023-01-28T04:20:35.365Z,0.20
2023-01-28T04:23:10.127Z,0.20
2023-01-28T04:25:41.839Z,0.20
2023-01-28T04:28:13.539Z,0.10
2023-01-28T04:30:45.409Z,0.20
2023-01-28T04:33:17.214Z,0.20
2023-01-28T04:35:48.914Z,0.20
2023-01-28T04:38:20.734Z,0.20
2023-01-28T04:40:54.174Z,0.20
2023-01-28T04:43:26.008Z,0.10
2023-01-28T04:45:57.757Z,0.20
2023-01-28T04:48:30.605Z,0.10
2023-01-28T04:51:03.526Z,0.10
2023-01-28T04:53:35.221Z,0.10
2023-01-28T04:56:07.186Z,0.20
2023-01-28T04:58:38.948Z,0.20
2023-01-28T05:01:10.725Z,0.20
2023-01-28T05:03:42.397Z,0.20
2023-01-28T05:06:14.201Z,0.30
2023-01-28T05:08:46.349Z,0.30
2023-01-28T05:11:18.102Z,0.30
2023-01-28T05:13:50.104Z,0.30
2023-01-28T05:16:21.824Z,0.30
2023-01-28T05:18:53.558Z,0.30
2023-01-28T05:21:25.519Z,0.30
2023-01-28T05:23:57.241Z,0.30
2023-01-28T05:26:29.016Z,0.30
2023-01-28T05:29:00.706Z,0.30
2023-01-28T05:31:32.371Z,0.30
2023-01-28T05:34:04.112Z,0.30
2023-01-28T05:36:35.794Z,0.20
2023-01-28T05:39:07.728Z,0.30
2023-01-28T05:41:39.439Z,0.30
2023-01-28T05:44:11.143Z,0.30
2023-01-28T05:46:46.672Z,0.30
2023-01-28T05:49:18.449Z,0.30
2023-01-28T05:51:50.092Z,0.30
2023-01-28T05:54:21.945Z,0.20
2023-01-28T05:56:53.636Z,0.20
2023-01-28T05:59:25.359Z,0.20
2023-01-28T06:01:57.057Z,0.20
2023-01-28T06:04:28.805Z,0.20
2023-01-28T06:07:00.593Z,0.20
2023-01-28T06:09:32.330Z,0.20
2023-01-28T06:12:04.331Z,0.30
2023-01-28T06:14:36.071Z,0.30
2023-01-28T06:17:08.191Z,0.30
2023-01-28T06:19:39.877Z,0.30
2023-01-28T06:22:11.575Z,0.30
2023-01-28T06:24:43.423Z,0.30
2023-01-28T06:27:15.095Z,0.30
2023-01-28T06:29:46.883Z,0.30
2023-01-28T06:32:18.714Z,0.40
2023-01-28T06:34:50.411Z,0.30
2023-01-28T06:37:22.380Z,0.30
2023-01-28T06:39:54.193Z,0.30
2023-01-28T06:42:25.894Z,0.30
2023-01-28T06:44:57.555Z,0.30
2023-01-28T06:47:29.266Z,0.30
2023-01-28T06:50:01.028Z,0.30
2023-01-28T06:52:32.776Z,0.30
2023-01-28T06:55:04.945Z,0.30
2023-01-28T06:57:40.818Z,0.30
2023-01-28T07:00:16.237Z,0.30
2023-01-28T07:02:48.394Z,0.30
2023-01-28T07:05:20.144Z,0.30
2023-01-28T07:07:51.885Z,0.30
2023-01-28T07:10:23.617Z,0.30
2023-01-28T07:12:55.271Z,0.30
2023-01-28T07:15:27.076Z,0.30
2023-01-28T07:17:59.749Z,0.30
2023-01-28T07:20:31.547Z,0.40
2023-01-28T07:23:03.325Z,0.30
2023-01-28T07:25:35.255Z,0.30
2023-01-28T07:28:07.246Z,0.30
2023-01-28T07:30:39.091Z,0.30
2023-01-28T07:33:10.818Z,0.30
2023-01-28T07:35:42.501Z,0.40
2023-01-28T07:38:14.532Z,0.40
2023-01-28T07:40:47.064Z,0.40
2023-01-28T07:43:18.692Z,0.40
2023-01-28T07:45:50.555Z,0.40
2023-01-28T07:48:22.261Z,0.40
2023-01-28T07:50:54.040Z,0.40
2023-01-28T07:53:26.071Z,0.40
2023-01-28T07:56:02.032Z,0.40
2023-01-28T07:58:34.637Z,0.50
2023-01-28T08:01:06.447Z,0.50
2023-01-28T08:03:38.167Z,0.50
2023-01-28T08:06:11.572Z,0.50
2023-01-28T08:08:43.379Z,0.60
2023-01-28T08:11:15.199Z,0.60
2023-01-28T08:13:46.994Z,0.70
2023-01-28T08:16:18.741Z,0.70
2023-01-28T08:18:50.587Z,0.70
2023-01-28T08:21:22.395Z,0.80
2023-01-28T08:23:54.879Z,0.80
2023-01-28T08:26:26.711Z,0.80
2023-01-28T08:28:58.428Z,0.80
2023-01-28T08:31:30.237Z,0.80
2023-01-28T08:34:02.434Z,0.80
2023-01-28T08:36:34.266Z,0.80
2023-01-28T08:39:06.149Z,0.80
2023-01-28T08:41:37.923Z,0.90
2023-01-28T08:44:09.603Z,0.90
2023-01-28T08:46:41.351Z,0.90
2023-01-28T08:49:13.076Z,0.90
2023-01-28T08:51:44.869Z,1.00
2023-01-28T08:54:16.603Z,1.10
2023-01-28T08:56:48.828Z,1.00
2023-01-28T08:59:20.564Z,1.10
2023-01-28T09:01:52.261Z,1.20
2023-01-28T09:04:24.142Z,1.10
2023-01-28T09:06:56.131Z,1.10
2023-01-28T09:09:27.878Z,1.20
2023-01-28T09:11:59.686Z,1.20
2023-01-28T09:14:31.370Z,1.30
2023-01-28T09:17:04.950Z,1.40
2023-01-28T09:19:36.671Z,1.40
2023-01-28T09:22:08.371Z,1.40
2023-01-28T09:24:40.047Z,1.40
2023-01-28T09:27:11.823Z,1.50
2023-01-28T09:29:43.717Z,1.60
2023-01-28T09:32:15.502Z,1.70
2023-01-28T09:34:47.196Z,1.80
2023-01-28T09:37:19.070Z,1.70
2023-01-28T09:39:50.875Z,1.70
2023-01-28T09:42:47.271Z,1.70
2023-01-28T09:45:37.103Z,1.70
2023-01-28T09:48:22.520Z,1.70
2023-01-28T09:50:55.371Z,1.70
2023-01-28T09:53:39.303Z,1.70
2023-01-28T09:56:22.631Z,1.70
2023-01-28T09:58:54.408Z,1.80
2023-01-28T10:01:34.691Z,1.70
2023-01-28T10:04:09.539Z,1.80
2023-01-28T10:07:31.922Z,1.90
2023-01-28T10:10:11.519Z,2.00
2023-01-28T10:13:05.343Z,2.00
2023-01-28T10:15:57.331Z,1.90
2023-01-28T10:18:44.141Z,1.80
2023-01-28T10:21:19.155Z,1.80
2023-01-28T10:24:15.312Z,1.90
2023-01-28T10:26:47.748Z,1.80
2023-01-28T10:29:24.422Z,1.80
2023-01-28T10:32:04.925Z,1.90
2023-01-28T10:34:37.574Z,1.90
2023-01-28T10:37:14.452Z,1.80
2023-01-28T10:39:46.665Z,1.70
2023-01-28T10:42:27.942Z,1.70
2023-01-28T10:45:06.096Z,1.70
2023-01-28T10:47:46.330Z,1.60
2023-01-28T10:50:23.251Z,1.60
2023-01-28T10:53:05.124Z,1.70
2023-01-28T10:55:54.017Z,1.70
2023-01-28T10:58:28.838Z,1.80
2023-01-28T11:01:03.202Z,1.80
2023-01-28T11:03:35.765Z,1.70
2023-01-28T11:06:23.223Z,1.70
2023-01-28T11:08:55.302Z,1.70
2023-01-28T11:11:28.723Z,1.80
2023-01-28T11:14:01.315Z,1.80
2023-01-28T11:16:33.219Z,1.80
2023-01-28T11:19:06.463Z,1.80
2023-01-28T11:21:38.289Z,1.80
2023-01-28T11:24:21.850Z,1.80
2023-01-28T11:26:56.402Z,1.80
2023-01-28T11:29:31.973Z,1.80
2023-01-28T11:32:03.803Z,1.70
2023-01-28T11:34:35.640Z,1.70
2023-01-28T11:37:17.570Z,1.70
2023-01-28T11:40:00.284Z,1.70
2023-01-28T11:42:32.063Z,1.70
2023-01-28T11:45:04.333Z,1.70
2023-01-28T11:47:42.120Z,1.60
2023-01-28T11:50:38.962Z,1.50
2023-01-28T11:53:48.955Z,1.50
2023-01-28T11:56:32.792Z,1.50
2023-01-28T11:59:23.296Z,1.50
2023-01-28T12:02:24.523Z,1.50
2023-01-28T12:05:17.701Z,1.60
2023-01-28T12:08:13.653Z,1.50
2023-01-28T12:11:12.550Z,1.50
2023-01-28T12:13:56.251Z,1.60
2023-01-28T12:17:00.133Z,1.50
2023-01-28T12:19:41.047Z,1.60
2023-01-28T12:22:31.479Z,1.50
2023-01-28T12:25:32.234Z,1.50
2023-01-28T12:28:30.682Z,1.50
2023-01-28T12:31:37.603Z,1.60
2023-01-28T12:34:31.691Z,1.60
2023-01-28T12:37:16.082Z,1.60
2023-01-28T12:40:12.716Z,1.60
2023-01-28T12:42:53.328Z,1.60
2023-01-28T12:45:37.318Z,1.60
2023-01-28T12:48:12.249Z,1.50
2023-01-28T12:51:02.800Z,1.50
2023-01-28T12:53:48.969Z,1.50
2023-01-28T12:56:27.663Z,1.50
2023-01-28T12:59:12.789Z,1.40
2023-01-28T13:02:00.358Z,1.40
2023-01-28T13:04:44.384Z,1.40
2023-01-28T13:07:24.521Z,1.50
2023-01-28T13:10:12.120Z,1.50
2023-01-28T13:12:44.331Z,1.50
2023-01-28T13:15:18.787Z,1.50
2023-01-28T13:18:05.767Z,1.60
2023-01-28T13:20:39.377Z,1.60
2023-01-28T13:23:36.331Z,1.60
2023-01-28T13:26:21.302Z,1.60
2023-01-28T13:29:06.652Z,1.50
2023-01-28T13:31:40.644Z,1.60
2023-01-28T13:34:36.388Z,1.60
2023-01-28T13:37:24.843Z,1.60
2023-01-28T13:40:17.526Z,1.70
2023-01-28T13:42:59.466Z,1.70
2023-01-28T13:45:31.647Z,1.70
2023-01-28T13:48:30.925Z,1.80
2023-01-28T13:51:04.353Z,1.80
2023-01-28T13:53:45.626Z,1.70
2023-01-28T13:56:27.913Z,1.70
2023-01-28T13:59:08.580Z,1.70
2023-01-28T14:02:07.188Z,1.70
2023-01-28T14:05:09.876Z,1.70
2023-01-28T14:08:00.568Z,1.70
2023-01-28T14:10:38.069Z,1.70
2023-01-28T14:13:36.880Z,1.60
2023-01-28T14:16:22.475Z,1.60
2023-01-28T14:18:58.479Z,1.50
2023-01-28T14:21:35.522Z,1.50
2023-01-28T14:24:15.859Z,1.50
2023-01-28T14:26:55.778Z,1.50
2023-01-28T14:30:03.853Z,1.50
2023-01-28T14:32:36.381Z,1.50
2023-01-28T14:35:09.930Z,1.50
2023-01-28T14:37:41.820Z,1.50
2023-01-28T14:40:16.848Z,1.40
2023-01-28T14:42:53.086Z,1.40
2023-01-28T14:45:51.472Z,1.40
2023-01-28T14:48:49.101Z,1.50
2023-01-28T14:51:58.669Z,1.40
2023-01-28T14:54:39.225Z,1.40
2023-01-28T14:57:20.811Z,1.30
2023-01-28T14:59:58.138Z,1.30
2023-01-28T15:02:31.290Z,1.30
2023-01-28T15:05:14.647Z,1.40
2023-01-28T15:07:49.027Z,1.40
2023-01-28T15:10:29.377Z,1.40
2023-01-28T15:13:10.770Z,1.40
2023-01-28T15:15:47.772Z,1.40
2023-01-28T15:18:24.016Z,1.30
2023-01-28T15:20:56.670Z,1.30
2023-01-28T15:23:33.054Z,1.30
2023-01-28T15:26:07.179Z,1.30
2023-01-28T15:28:39.995Z,1.30
2023-01-28T15:31:30.679Z,1.30
2023-01-28T15:34:17.949Z,1.30
2023-01-28T15:36:49.953Z,1.20
2023-01-28T15:39:23.641Z,1.20
2023-01-28T15:41:59.574Z,1.20
2023-01-28T15:44:33.588Z,1.20
2023-01-28T15:47:14.375Z,1.20
2023-01-28T15:49:48.586Z,1.10
2023-01-28T15:52:29.248Z,1.20
2023-01-28T15:55:02.058Z,1.10
2023-01-28T15:57:35.708Z,1.10
2023-01-28T16:00:07.489Z,1.10
2023-01-28T16:02:47.970Z,1.10
2023-01-28T16:05:35.564Z,1.10
2023-01-28T16:08:13.048Z,1.10
2023-01-28T16:10:55.680Z,1.10
2023-01-28T16:13:33.089Z,1.10
2023-01-28T16:16:05.687Z,1.20
2023-01-28T16:18:51.631Z,1.20
2023-01-28T16:21:44.134Z,1.20
2023-01-28T16:24:38.481Z,1.20
2023-01-28T16:27:28.199Z,1.10
2023-01-28T16:30:01.338Z,1.10
2023-01-28T16:32:38.797Z,1.10
2023-01-28T16:35:18.727Z,1.10
2023-01-28T16:37:51.099Z,1.10
2023-01-28T16:40:24.702Z,1.20
2023-01-28T16:42:56.413Z,1.10
2023-01-28T16:45:28.063Z,1.10
2023-01-28T16:47:59.927Z,1.20
2023-01-28T16:50:32.586Z,1.20
2023-01-28T16:53:04.562Z,1.20
2023-01-28T16:55:36.286Z,1.20
2023-01-28T16:58:09.312Z,1.10
2023-01-28T17:00:42.120Z,1.10
2023-01-28T17:03:13.864Z,1.10
2023-01-28T17:05:46.206Z,1.10
2023-01-28T17:08:17.973Z,1.10
2023-01-28T17:10:56.586Z,1.20
2023-01-28T17:13:28.655Z,1.20
2023-01-28T17:16:04.033Z,1.10
2023-01-28T17:18:35.787Z,1.10
2023-01-28T17:21:07.724Z,1.20
2023-01-28T17:23:39.432Z,1.20
2023-01-28T17:26:13.872Z,1.20
2023-01-28T17:28:50.919Z,1.20
2023-01-28T17:31:23.612Z,1.20
2023-01-28T17:33:57.215Z,1.20
2023-01-28T17:36:29.284Z,1.10
2023-01-28T17:39:01.261Z,1.20
2023-01-28T17:41:33.331Z,1.10
2023-01-28T17:44:05.785Z,1.10
2023-01-28T17:46:37.472Z,1.20
2023-01-28T17:49:09.277Z,1.10
2023-01-28T17:51:41.060Z,1.10
2023-01-28T17:54:12.860Z,1.20
2023-01-28T17:56:44.954Z,1.20
2023-01-28T17:59:17.555Z,1.20
2023-01-28T18:01:50.053Z,1.20
2023-01-28T18:04:21.827Z,1.20
2023-01-28T18:06:53.549Z,1.20
2023-01-28T18:09:25.198Z,1.20
2023-01-28T18:11:56.922Z,1.20
2023-01-28T18:14:28.855Z,1.20
2023-01-28T18:17:01.004Z,1.20
2023-01-28T18:19:32.928Z,1.10
2023-01-28T18:22:04.628Z,1.10
2023-01-28T18:24:36.504Z,1.20
2023-01-28T18:27:08.243Z,1.10
2023-01-28T18:29:39.954Z,1.10
2023-01-28T18:32:11.728Z,1.10
2023-01-28T18:34:43.434Z,1.10
2023-01-28T18:37:15.258Z,1.10
2023-01-28T18:39:47.036Z,1.10
2023-01-28T18:42:18.703Z,1.10
2023-01-28T18:44:50.682Z,1.10
2023-01-28T18:47:22.329Z,1.10
2023-01-28T18:49:54.179Z,1.10
2023-01-28T18:52:25.842Z,1.10
2023-01-28T18:54:57.739Z,1.10
2023-01-28T18:57:29.566Z,1.10
2023-01-28T19:00:01.380Z,1.10
2023-01-28T19:02:33.132Z,1.00
2023-01-28T19:05:05.106Z,1.00
2023-01-28T19:07:37.272Z,1.00
2023-01-28T19:10:09.512Z,1.00
2023-01-28T19:12:41.242Z,1.00
2023-01-28T19:15:13.069Z,1.00
2023-01-28T19:17:44.827Z,0.90
2023-01-28T19:20:17.088Z,0.90
2023-01-28T19:22:48.788Z,0.90
2023-01-28T19:25:20.615Z,0.80
2023-01-28T19:27:53.956Z,0.80
2023-01-28T19:30:25.667Z,0.80
2023-01-28T19:32:57.520Z,0.80
2023-01-28T19:35:29.472Z,0.80
2023-01-28T19:38:01.504Z,0.80
2023-01-28T19:40:33.224Z,0.80
2023-01-28T19:43:04.964Z,0.80
2023-01-28T19:45:36.622Z,0.80
2023-01-28T19:48:08.342Z,0.80
2023-01-28T19:50:40.017Z,0.80
2023-01-28T19:53:11.779Z,0.80
2023-01-28T19:55:43.541Z,0.80
2023-01-28T19:58:15.743Z,0.70
2023-01-28T20:00:47.524Z,0.70
2023-01-28T20:03:19.220Z,0.70
2023-01-28T20:05:50.971Z,0.70
2023-01-28T20:08:22.699Z,0.70
2023-01-28T20:10:54.494Z,0.70
2023-01-28T20:13:26.272Z,0.70
2023-01-28T20:15:58.538Z,0.70
2023-01-28T20:18:30.539Z,0.70
2023-01-28T20:21:04.950Z,0.80
2023-01-28T20:23:36.604Z,0.70
2023-01-28T20:26:08.385Z,0.70
2023-01-28T20:28:40.148Z,0.70
2023-01-28T20:31:12.245Z,0.80
2023-01-28T20:33:44.083Z,0.70
2023-01-28T20:36:16.023Z,0.70
2023-01-28T20:38:48.373Z,0.60
2023-01-28T20:41:22.554Z,0.70
2023-01-28T20:43:54.659Z,0.70
2023-01-28T20:46:29.966Z,0.70
2023-01-28T20:49:06.585Z,0.70
2023-01-28T20:51:39.066Z,0.60
2023-01-28T20:54:13.547Z,0.60
2023-01-28T20:56:45.337Z,0.50
2023-01-28T20:59:17.215Z,0.50
2023-01-28T21:01:48.937Z,0.50
2023-01-28T21:04:20.732Z,0.50
2023-01-28T21:06:52.435Z,0.50
2023-01-28T21:09:25.946Z,0.50
2023-01-28T21:11:58.709Z,0.50
2023-01-28T21:14:30.465Z,0.50
2023-01-28T21:17:02.297Z,0.50
2023-01-28T21:19:34.117Z,0.40
2023-01-28T21:22:05.995Z,0.40
2023-01-28T21:24:37.737Z,0.50
2023-01-28T21:27:09.467Z,0.40
2023-01-28T21:29:41.181Z,0.40
2023-01-28T21:32:12.951Z,0.40
2023-01-28T21:34:44.748Z,0.30
2023-01-28T21:37:16.491Z,0.40
2023-01-28T21:39:50.142Z,0.30
2023-01-28T21:42:22.098Z,0.30
2023-01-28T21:44:53.875Z,0.30
2023-01-28T21:47:25.526Z,0.30
2023-01-28T21:49:57.775Z,0.30
2023-01-28T21:52:29.437Z,0.30
2023-01-28T21:55:01.127Z,0.30
2023-01-28T21:57:32.873Z,0.30
2023-01-28T22:00:05.171Z,0.40
2023-01-28T22:02:39.637Z,0.40
2023-01-28T22:05:12.396Z,0.40
2023-01-28T22:07:44.134Z,0.20
2023-01-28T22:10:16.498Z,0.30
2023-01-28T22:12:48.361Z,0.20
2023-01-28T22:15:20.053Z,0.30
2023-01-28T22:17:51.750Z,0.30
2023-01-28T22:20:23.716Z,0.30
2023-01-28T22:22:55.416Z,0.20
2023-01-28T22:25:27.201Z,0.20
2023-01-28T22:27:59.130Z,0.20
2023-01-28T22:30:30.924Z,0.20
2023-01-28T22:33:02.615Z,0.20
2023-01-28T22:35:34.465Z,0.20
2023-01-28T22:38:06.203Z,0.20
2023-01-28T22:40:37.991Z,0.20
2023-01-28T22:43:10.292Z,0.20
2023-01-28T22:45:42.429Z,0.20
2023-01-28T22:48:14.184Z,0.20
2023-01-28T22:50:45.951Z,0.10
2023-01-28T22:53:17.749Z,0.00
2023-01-28T22:55:55.254Z,0.00
2023-01-28T22:58:27.066Z,0.10
2023-01-28T23:00:59.422Z,0.00
2023-01-28T23:03:31.601Z,0.00
2023-01-28T23:06:04.975Z,0.00
2023-01-28T23:08:36.673Z,0.00
2023-01-28T23:11:15.055Z,0.00
2023-01-28T23:14:05.272Z,0.00
2023-01-28T23:16:55.678Z,0.00
2023-01-28T23:19:46.620Z,0.00
2023-01-28T23:22:49.329Z,0.10
2023-01-28T23:25:23.283Z,0.10
2023-01-28T23:27:55.091Z,0.10
2023-01-28T23:30:27.235Z,0.10
2023-01-28T23:32:59.515Z,0.10
2023-01-28T23:35:32.667Z,0.10
2023-01-28T23:38:04.570Z,0.10
2023-01-28T23:40:36.421Z,0.10
2023-01-28T23:43:08.189Z,0.00
2023-01-28T23:45:40.016Z,0.10
2023-01-28T23:48:11.780Z,0.10
2023-01-28T23:50:43.607Z,0.10
2023-01-28T23:53:15.346Z,0.10
2023-01-28T23:55:47.039Z,0.10
2023-01-28T23:58:37.231Z,0.10
